Weather


ICAO METAR
KAPA KAPA 061953Z 20012G20KT 10SM FEW120 FEW200 21/M09 A2983 RMK AO2 SLP049 T02111089
KASE KASE 061953Z 17012G23KT 10SM CLR 14/M11 A2997 RMK AO2 SLP069 T01391111
KBJC KBJC 061945Z 02008G14KT 10SM FEW120 21/M08 A2982
KBKF KBKF 061958Z 26008G18KT 10SM FEW090 21/M10 A2982 RMK AO2A SLP049 T02081097
KCOS KCOS 061954Z 23015G21KT 10SM FEW100 FEW230 22/M14 A2987 RMK AO2 SLP042 T02171139
KCPR KCPR 061953Z 24027G38KT 10SM FEW085 18/M02 A2974 RMK AO2 PK WND 25038/1951 SLP040 T01781022
KCYS KCYS 061953Z 19014G27KT 10SM FEW120 20/M12 A2981 RMK AO2 PK WND 20030/1859 SLP040 T02001122
KDEN KDEN 061953Z 19006KT 10SM FEW100 FEW220 21/M08 A2981 RMK AO2 SLP040 T02111078
KEGE KEGE 061956Z 26023G29KT 10SM SCT100 16/M10 A2993 RMK AO2 PK WND 22034/1936 SLP116 T01611100
KFCS KFCS 061958Z AUTO 22020G25KT 10SM CLR 22/M20 A2983 RMK AO2 PK WND 22032/53 SLP057 T02171197 $
KFMN KFMN 061953Z 24009G16KT 10SM CLR 19/M09 A2998 RMK AO2 SLP116 T01941089
KFTG KFTG 300455Z AUTO 26006KT 10SM SCT013 BKN023 OVC060 M01/M02 A3006 RMK AO2 T10111023
KGCC KGCC 061953Z AUTO 24024G36KT 10SM CLR 20/M04 A2962 RMK AO2 PK WND 24037/1911 SLP004 T02001039
KGJT KGJT 061953Z 20015G24KT 10SM CLR 21/M11 A2987 RMK AO2 SLP068 T02061106
KPUB KPUB 061953Z 05008KT 10SM CLR 24/M14 A2981 RMK AO2 SLP050 T02441139
KRAP KRAP 061952Z 23016KT 10SM FEW100 23/M02 A2963 RMK AO2 PK WND 26030/1928 SLP024 T02331017
KRCA KRCA 061956Z AUTO 25014G23KT 10SM FEW160 FEW190 SCT220 23/00 A2963 RMK AO2 PK WND 22028/16 SLP025 T02280000

Surface Data
Click here.

This is a composite map contain the following analyses: radar summary (color filled areas), surface data plot (composite station model), frontal locations (in various bold lines) and pressure contours (in thin blue lines).